createdAt,value
2018-11-07T00:00:25.295Z,11.64
2018-11-07T00:05:29.958Z,11.66
2018-11-07T00:10:34.507Z,11.65
2018-11-07T00:15:39.876Z,11.59
2018-11-07T00:20:45.002Z,11.59
2018-11-07T00:25:55.252Z,11.61
2018-11-07T00:30:59.850Z,11.56
2018-11-07T00:36:10.328Z,11.54
2018-11-07T00:41:15.274Z,11.57
2018-11-07T00:46:19.764Z,11.60
2018-11-07T00:51:24.645Z,11.70
2018-11-07T00:56:34.244Z,11.76
2018-11-07T01:01:39.063Z,11.81
2018-11-07T01:06:44.079Z,11.80
2018-11-07T01:11:48.538Z,11.73
2018-11-07T01:16:53.169Z,11.70
2018-11-07T01:21:57.695Z,11.68
2018-11-07T01:27:03.460Z,11.62
2018-11-07T01:32:08.068Z,11.65
2018-11-07T01:37:12.698Z,11.64
2018-11-07T01:42:19.342Z,11.66
2018-11-07T01:47:24.036Z,11.64
2018-11-07T01:52:31.167Z,11.59
2018-11-07T01:57:40.666Z,11.52
2018-11-07T02:02:45.267Z,11.47
2018-11-07T02:07:59.108Z,11.47
2018-11-07T02:13:03.609Z,11.44
2018-11-07T02:18:08.853Z,11.44
2018-11-07T02:23:13.378Z,11.43
2018-11-07T02:28:18.066Z,11.38
2018-11-07T02:33:22.822Z,11.32
2018-11-07T02:38:27.133Z,11.19
2018-11-07T02:43:31.603Z,11.14
2018-11-07T02:48:37.232Z,11.01
2018-11-07T02:53:41.880Z,10.94
2018-11-07T02:58:46.342Z,10.85
2018-11-07T03:04:13.146Z,10.85
2018-11-07T03:09:17.586Z,10.83
2018-11-07T03:14:31.408Z,10.78
2018-11-07T03:19:35.686Z,10.71
2018-11-07T03:24:40.024Z,10.65
2018-11-07T03:29:44.608Z,10.63
2018-11-07T03:34:49.144Z,10.67
2018-11-07T03:39:53.803Z,10.70
2018-11-07T03:45:04.164Z,10.71
2018-11-07T03:50:09.188Z,10.74
2018-11-07T03:55:19.215Z,10.78
2018-11-07T04:00:23.985Z,10.75
2018-11-07T04:05:28.479Z,10.75
2018-11-07T04:10:34.105Z,10.73
2018-11-07T04:15:38.714Z,10.75
2018-11-07T04:20:44.993Z,10.77
2018-11-07T04:25:49.762Z,10.78
2018-11-07T04:30:54.423Z,10.80
2018-11-07T04:35:58.886Z,10.80
2018-11-07T04:41:03.698Z,10.81
2018-11-07T04:46:08.498Z,10.85
2018-11-07T04:51:13.132Z,10.85
2018-11-07T04:56:17.667Z,10.82
2018-11-07T05:01:22.222Z,10.82
2018-11-07T05:06:26.925Z,10.80
2018-11-07T05:11:31.421Z,10.79
2018-11-07T05:16:41.361Z,10.79
2018-11-07T05:21:46.250Z,10.77
2018-11-07T05:26:55.952Z,10.81
2018-11-07T05:32:00.573Z,10.84
2018-11-07T05:37:05.289Z,10.87
2018-11-07T05:42:09.897Z,10.87
2018-11-07T05:47:14.441Z,10.90
2018-11-07T05:52:18.984Z,10.88
2018-11-07T05:57:28.598Z,10.85
2018-11-07T06:02:33.133Z,10.82
2018-11-07T06:07:38.208Z,10.84
2018-11-07T06:12:43.272Z,10.84
2018-11-07T06:17:49.845Z,10.85
2018-11-07T06:22:54.653Z,10.85
2018-11-07T06:27:59.881Z,10.85
2018-11-07T06:33:04.570Z,10.86
2018-11-07T06:38:09.186Z,10.82
2018-11-07T06:43:13.746Z,10.84
2018-11-07T06:48:18.319Z,10.85
2018-11-07T06:53:23.158Z,10.86
2018-11-07T06:58:27.608Z,10.85
2018-11-07T07:03:33.126Z,10.88
2018-11-07T07:08:38.246Z,10.94
2018-11-07T07:13:43.070Z,10.96
2018-11-07T07:18:47.640Z,10.97
2018-11-07T07:23:52.273Z,10.99
2018-11-07T07:28:57.467Z,11.06
2018-11-07T07:34:02.659Z,11.09
2018-11-07T07:39:09.940Z,11.12
2018-11-07T07:44:14.305Z,11.18
2018-11-07T07:49:19.591Z,11.22
2018-11-07T07:54:24.234Z,11.31
2018-11-07T07:59:28.821Z,11.40
2018-11-07T08:04:38.248Z,11.47
2018-11-07T08:09:42.842Z,11.56
2018-11-07T08:14:48.495Z,11.64
2018-11-07T08:19:53.228Z,11.69
2018-11-07T08:24:57.778Z,11.71
2018-11-07T08:30:02.382Z,11.78
2018-11-07T08:35:07.739Z,11.84
2018-11-07T08:40:18.067Z,11.96
2018-11-07T08:45:28.464Z,12.03
2018-11-07T08:50:32.969Z,12.13
2018-11-07T08:55:37.685Z,12.23
2018-11-07T09:00:42.488Z,12.36
2018-11-07T09:05:48.573Z,12.42
2018-11-07T09:10:53.318Z,12.56
2018-11-07T09:15:57.727Z,12.66
2018-11-07T09:21:02.703Z,12.73
2018-11-07T09:26:07.474Z,12.83
2018-11-07T09:31:12.109Z,12.97
2018-11-07T09:36:21.654Z,13.11
2018-11-07T09:41:26.523Z,13.18
2018-11-07T09:46:30.961Z,13.27
2018-11-07T09:51:35.680Z,13.35
2018-11-07T09:56:40.228Z,13.49
2018-11-07T10:01:45.104Z,13.58
2018-11-07T10:06:49.746Z,13.70
2018-11-07T10:11:54.173Z,13.81
2018-11-07T10:17:12.183Z,13.96
2018-11-07T10:22:17.916Z,14.19
2018-11-07T10:27:23.803Z,14.38
2018-11-07T10:32:31.164Z,14.59
2018-11-07T10:37:49.938Z,14.83
2018-11-07T10:42:54.243Z,15.15
2018-11-07T10:47:59.087Z,15.46
2018-11-07T10:53:04.457Z,15.82
2018-11-07T10:58:14.353Z,15.95
2018-11-07T11:03:23.857Z,15.94
2018-11-07T11:08:28.916Z,16.07
2018-11-07T11:13:33.831Z,16.27
2018-11-07T11:18:38.322Z,16.50
2018-11-07T11:23:42.791Z,16.63
2018-11-07T11:28:47.504Z,16.64
2018-11-07T11:33:51.982Z,16.69
2018-11-07T11:38:56.382Z,16.93
2018-11-07T11:44:00.870Z,16.90
2018-11-07T11:49:05.800Z,16.78
2018-11-07T11:54:10.413Z,16.75
2018-11-07T11:59:14.978Z,16.66
2018-11-07T12:04:19.502Z,16.58
2018-11-07T12:09:23.952Z,16.63
2018-11-07T12:14:41.955Z,16.62
2018-11-07T12:19:46.448Z,16.71
2018-11-07T12:24:51.234Z,16.74
2018-11-07T12:29:55.464Z,16.78
2018-11-07T12:35:00.043Z,16.97
2018-11-07T12:40:05.022Z,17.10
2018-11-07T12:45:10.461Z,17.31
2018-11-07T12:50:23.716Z,17.41
2018-11-07T12:55:34.518Z,17.60
2018-11-07T13:00:39.625Z,18.43
2018-11-07T13:05:44.426Z,19.29
2018-11-07T13:10:49.000Z,20.02
2018-11-07T13:15:53.957Z,20.82
2018-11-07T13:20:58.783Z,20.72
2018-11-07T13:26:03.374Z,20.52
2018-11-07T13:31:08.365Z,19.69
2018-11-07T13:36:13.064Z,18.63
2018-11-07T13:41:17.935Z,17.95
2018-11-07T13:46:23.660Z,17.45
2018-11-07T13:51:28.940Z,17.23
2018-11-07T13:56:33.474Z,16.96
2018-11-07T14:01:38.049Z,16.78
2018-11-07T14:06:43.031Z,16.60
2018-11-07T14:11:47.989Z,16.48
2018-11-07T14:16:59.018Z,16.42
2018-11-07T14:22:04.482Z,16.30
2018-11-07T14:27:11.684Z,16.17
2018-11-07T14:32:16.255Z,16.05
2018-11-07T14:37:20.730Z,15.90
2018-11-07T14:42:25.621Z,15.82
2018-11-07T14:47:35.085Z,15.80
2018-11-07T14:52:39.671Z,15.72
2018-11-07T14:57:44.887Z,15.61
2018-11-07T15:02:49.928Z,15.52
2018-11-07T15:07:55.842Z,15.46
2018-11-07T15:13:00.970Z,15.38
2018-11-07T15:18:05.943Z,15.32
2018-11-07T15:23:10.657Z,15.31
2018-11-07T15:33:37.534Z,15.32
2018-11-07T15:38:42.553Z,15.22
2018-11-07T15:43:47.212Z,15.17
2018-11-07T15:48:51.937Z,15.14
2018-11-07T15:53:56.573Z,15.01
2018-11-07T15:59:01.466Z,14.87
2018-11-07T16:04:09.616Z,14.76
2018-11-07T16:09:15.942Z,14.66
2018-11-07T16:14:22.343Z,14.55
2018-11-07T16:19:27.017Z,14.41
2018-11-07T16:24:31.764Z,14.36
2018-11-07T16:29:38.682Z,14.23
2018-11-07T16:34:46.990Z,14.16
2018-11-07T16:40:14.097Z,14.13
2018-11-07T16:45:25.681Z,14.14
2018-11-07T16:50:31.502Z,14.07
2018-11-07T16:55:45.483Z,13.99
2018-11-07T17:00:56.834Z,13.94
2018-11-07T17:06:08.561Z,13.82
2018-11-07T17:11:25.201Z,13.81
2018-11-07T17:16:42.929Z,13.73
2018-11-07T17:27:39.518Z,13.66
2018-11-07T17:32:59.149Z,13.59
2018-11-07T17:44:10.953Z,13.49
2018-11-07T17:54:55.327Z,13.49
2018-11-07T18:00:33.985Z,13.42
2018-11-07T18:16:53.724Z,13.24
2018-11-07T18:22:06.752Z,13.15
2018-11-07T18:27:22.723Z,13.11
2018-11-07T18:32:45.662Z,13.16
2018-11-07T18:38:30.502Z,13.08
2018-11-07T18:43:51.721Z,13.02
2018-11-07T18:49:10.524Z,13.02
2018-11-07T18:54:22.019Z,13.03
2018-11-07T18:59:29.864Z,12.95
2018-11-07T19:04:35.052Z,12.90
2018-11-07T19:09:41.190Z,12.90
2018-11-07T19:20:23.593Z,12.82
2018-11-07T19:25:48.764Z,12.82
2018-11-07T19:30:55.186Z,12.73
2018-11-07T19:36:07.699Z,12.77
2018-11-07T19:41:17.018Z,12.82
2018-11-07T19:46:30.451Z,12.86
2018-11-07T19:51:38.912Z,12.87
2018-11-07T19:56:44.962Z,12.82
2018-11-07T20:01:51.364Z,12.81
2018-11-07T20:07:08.930Z,12.76
2018-11-07T20:12:19.402Z,12.82
2018-11-07T20:17:33.545Z,12.83
2018-11-07T20:22:39.363Z,12.73
2018-11-07T20:32:58.650Z,12.63
2018-11-07T20:43:34.948Z,12.59
2018-11-07T20:48:41.807Z,12.60
2018-11-07T20:53:46.782Z,12.55
2018-11-07T20:58:52.188Z,12.56
2018-11-07T21:03:57.378Z,12.52
2018-11-07T21:09:02.000Z,12.48
2018-11-07T21:14:08.208Z,12.43
2018-11-07T21:19:13.170Z,12.39
2018-11-07T21:24:18.014Z,12.29
2018-11-07T21:29:23.452Z,12.20
2018-11-07T21:34:28.210Z,12.15
2018-11-07T21:39:35.148Z,12.06
2018-11-07T21:44:39.999Z,11.92
2018-11-07T21:49:44.676Z,11.80
2018-11-07T21:54:49.145Z,11.70
2018-11-07T21:59:53.931Z,11.66
2018-11-07T22:04:58.377Z,11.58
2018-11-07T22:10:03.360Z,11.54
2018-11-07T22:15:10.188Z,11.53
2018-11-07T22:20:25.885Z,11.56
2018-11-07T22:25:39.772Z,11.49
2018-11-07T22:30:45.152Z,11.42
2018-11-07T22:35:49.712Z,11.42
2018-11-07T22:40:54.780Z,11.45
2018-11-07T22:45:59.346Z,11.39
2018-11-07T22:51:04.451Z,11.35
2018-11-07T22:56:09.134Z,11.36
2018-11-07T23:12:36.152Z,11.29
2018-11-07T23:17:50.991Z,11.14
2018-11-07T23:22:55.907Z,11.07
2018-11-07T23:28:02.925Z,11.13
2018-11-07T23:33:07.609Z,11.13
2018-11-07T23:38:12.459Z,11.16
2018-11-07T23:43:17.095Z,11.09
2018-11-07T23:48:22.462Z,11.00
2018-11-07T23:53:26.932Z,11.00
2018-11-07T23:58:31.232Z,10.97
